Sikeston, Missouri
Current Conditions -  °F | °C
As of 11:55 AM on Friday 24 Oct 2014 (Local Time) from KCIR Reporting Station
Clear Clear  
Wind Chill: 68°   Ceiling: Unl
Heat Index: 68°   Visibility: 10mi
Dew Point: 52°   Wind: 6mph
Humidity: 57%   Direction: 260°W
Pressure: 30.13"   Gusts: NA
Location:  36.88°N, 89.59°W
Report Text: KCIR 241655Z AUTO 26005KT 10SM CLR 20/11 A3013 RMK AO2 P0001 T01980111
Loading
Personal Weather Stations






























Interactive Weather Map
Tropical Storm Tracking
New forecast layout! Learn more

10-Day Weather Forecast

Advertisements
Track Severe Weather on mobile